createdAt,value
2022-08-22T00:00:15.146Z,4.43
2022-08-22T00:03:04.185Z,2.00
2022-08-22T00:06:20.308Z,4.78
2022-08-22T00:09:18.061Z,4.40
2022-08-22T00:11:57.953Z,4.68
2022-08-22T00:14:52.092Z,4.68
2022-08-22T00:17:55.899Z,4.47
2022-08-22T00:20:52.854Z,4.35
2022-08-22T00:23:30.630Z,4.68
2022-08-22T00:26:09.068Z,4.28
2022-08-22T00:28:44.184Z,4.72
2022-08-22T00:31:26.055Z,4.38
2022-08-22T00:34:01.227Z,4.28
2022-08-22T00:36:35.471Z,4.82
2022-08-22T00:39:35.695Z,3.90
2022-08-22T00:42:14.661Z,4.28
2022-08-22T00:45:01.168Z,4.63
2022-08-22T00:47:57.991Z,3.95
2022-08-22T00:50:27.899Z,3.70
2022-08-22T00:53:08.751Z,4.60
2022-08-22T00:55:48.868Z,4.18
2022-08-22T00:58:33.831Z,4.25
2022-08-22T01:01:07.873Z,4.25
2022-08-22T01:03:55.254Z,3.55
2022-08-22T01:06:46.385Z,4.10
2022-08-22T01:09:18.897Z,4.43
2022-08-22T01:12:15.523Z,4.43
2022-08-22T01:15:15.159Z,4.22
2022-08-22T01:17:56.878Z,4.25
2022-08-22T01:21:03.678Z,3.65
2022-08-22T01:24:05.378Z,4.30
2022-08-22T01:27:05.194Z,4.00
2022-08-22T01:29:41.481Z,4.15
2022-08-22T01:32:45.079Z,4.13
2022-08-22T01:35:45.879Z,3.92
2022-08-22T01:38:36.249Z,4.05
2022-08-22T01:41:47.883Z,4.40
2022-08-22T01:44:17.932Z,3.80
2022-08-22T01:47:14.646Z,4.38
2022-08-22T01:50:08.282Z,4.22
2022-08-22T01:52:49.661Z,4.30
2022-08-22T01:55:31.169Z,4.55
2022-08-22T01:58:01.240Z,4.60
2022-08-22T02:00:48.577Z,4.47
2022-08-22T02:03:21.284Z,4.60
2022-08-22T02:06:00.926Z,3.97
2022-08-22T02:08:50.403Z,4.32
2022-08-22T02:11:52.788Z,4.97
2022-08-22T02:14:43.506Z,4.13
2022-08-22T02:17:21.892Z,4.00
2022-08-22T02:20:01.617Z,3.97
2022-08-22T02:22:34.950Z,4.22
2022-08-22T02:25:15.050Z,4.03
2022-08-22T02:28:05.998Z,4.00
2022-08-22T02:31:00.486Z,3.85
2022-08-22T02:33:53.191Z,3.78
2022-08-22T02:36:30.796Z,4.18
2022-08-22T02:39:10.883Z,3.97
2022-08-22T02:42:01.847Z,4.20
2022-08-22T02:44:36.527Z,3.95
2022-08-22T02:47:11.843Z,4.18
2022-08-22T02:50:05.999Z,4.07
2022-08-22T02:53:24.679Z,4.10
2022-08-22T02:56:18.764Z,3.77
2022-08-22T02:58:57.324Z,4.03
2022-08-22T03:01:32.526Z,4.30
2022-08-22T03:04:24.387Z,3.55
2022-08-22T03:07:06.884Z,4.00
2022-08-22T03:09:41.352Z,4.30
2022-08-22T03:12:20.996Z,3.75
2022-08-22T03:15:00.947Z,3.92
2022-08-22T03:17:38.406Z,3.88
2022-08-22T03:20:06.444Z,3.60
2022-08-22T03:22:44.202Z,3.83
2022-08-22T03:25:38.053Z,3.95
2022-08-22T03:28:18.471Z,3.92
2022-08-22T03:30:55.413Z,3.47
2022-08-22T03:33:31.172Z,3.78
2022-08-22T03:36:04.109Z,3.63
2022-08-22T03:38:33.611Z,3.53
2022-08-22T03:41:21.685Z,3.30
2022-08-22T03:43:48.484Z,4.07
2022-08-22T03:46:20.668Z,3.90
2022-08-22T03:51:38.490Z,3.92
2022-08-22T03:54:23.359Z,4.10
2022-08-22T03:57:21.206Z,3.75
2022-08-22T04:00:07.954Z,3.60
2022-08-22T04:03:12.006Z,4.22
2022-08-22T04:05:57.438Z,4.10
2022-08-22T04:08:45.874Z,3.80
2022-08-22T04:11:36.271Z,3.85
2022-08-22T04:14:33.236Z,3.47
2022-08-22T04:17:23.396Z,3.70
2022-08-22T04:20:02.315Z,3.63
2022-08-22T04:22:55.460Z,4.03
2022-08-22T04:25:38.786Z,3.38
2022-08-22T04:28:17.443Z,3.60
2022-08-22T04:30:58.810Z,3.85
2022-08-22T04:33:47.111Z,3.72
2022-08-22T04:36:26.340Z,4.13
2022-08-22T04:39:18.667Z,3.60
2022-08-22T04:41:51.492Z,3.97
2022-08-22T04:44:46.228Z,3.80
2022-08-22T04:47:37.422Z,4.60
2022-08-22T04:50:26.128Z,3.80
2022-08-22T04:53:48.454Z,3.92
2022-08-22T04:56:39.246Z,4.18
2022-08-22T04:59:13.824Z,4.38
2022-08-22T05:01:54.958Z,4.07
2022-08-22T05:04:32.266Z,4.00
2022-08-22T05:07:11.021Z,4.72
2022-08-22T05:09:59.260Z,4.03
2022-08-22T05:12:32.850Z,4.18
2022-08-22T05:15:15.279Z,4.50
2022-08-22T05:17:48.826Z,4.13
2022-08-22T05:20:18.807Z,5.05
2022-08-22T05:22:51.271Z,4.53
2022-08-22T05:25:26.486Z,5.40
2022-08-22T05:28:08.700Z,4.82
2022-08-22T05:30:45.088Z,4.15
2022-08-22T05:33:29.152Z,4.63
2022-08-22T05:36:10.002Z,5.18
2022-08-22T05:38:48.477Z,4.07
2022-08-22T05:41:23.756Z,4.28
2022-08-22T05:43:52.651Z,4.63
2022-08-22T05:46:44.947Z,4.80
2022-08-22T05:49:36.016Z,4.43
2022-08-22T05:52:15.900Z,4.75
2022-08-22T05:54:57.306Z,4.53
2022-08-22T05:57:31.531Z,4.82
2022-08-22T06:00:05.092Z,4.65
2022-08-22T06:03:09.667Z,4.82
2022-08-22T06:05:40.171Z,5.00
2022-08-22T06:08:34.462Z,4.60
2022-08-22T06:11:12.164Z,5.10
2022-08-22T06:13:53.292Z,4.72
2022-08-22T06:16:48.744Z,5.15
2022-08-22T06:19:19.775Z,4.88
2022-08-22T06:21:52.926Z,4.87
2022-08-22T06:24:25.054Z,5.10
2022-08-22T06:26:54.752Z,4.85
2022-08-22T06:29:34.020Z,4.80
2022-08-22T06:32:10.607Z,5.40
2022-08-22T06:34:43.959Z,4.88
2022-08-22T06:37:17.316Z,5.25
2022-08-22T06:39:49.166Z,4.63
2022-08-22T06:42:28.442Z,5.53
2022-08-22T06:45:07.001Z,5.78
2022-08-22T06:47:40.326Z,5.78
2022-08-22T06:50:19.330Z,5.30
2022-08-22T06:52:58.387Z,5.05
2022-08-22T06:55:28.325Z,5.70
2022-08-22T06:58:05.897Z,5.95
2022-08-22T07:00:34.830Z,5.32
2022-08-22T07:03:07.849Z,5.22
2022-08-22T07:05:37.979Z,5.70
2022-08-22T07:08:12.007Z,6.28
2022-08-22T07:10:44.321Z,5.82
2022-08-22T07:13:19.580Z,6.20
2022-08-22T07:15:56.286Z,6.05
2022-08-22T07:18:26.015Z,5.93
2022-08-22T07:20:56.984Z,5.57
2022-08-22T07:23:47.791Z,5.90
2022-08-22T07:26:38.458Z,5.50
2022-08-22T07:29:15.008Z,5.88
2022-08-22T07:32:16.062Z,6.30
2022-08-22T07:34:45.591Z,5.85
2022-08-22T07:37:27.031Z,6.57
2022-08-22T07:39:59.944Z,5.60
2022-08-22T07:42:55.468Z,6.10
2022-08-22T07:45:35.202Z,6.38
2022-08-22T07:48:26.293Z,5.53
2022-08-22T07:51:12.527Z,6.20
2022-08-22T07:54:00.846Z,5.80
2022-08-22T07:56:36.291Z,5.85
2022-08-22T07:59:17.135Z,5.80
2022-08-22T08:01:48.181Z,5.95
2022-08-22T08:04:19.513Z,4.80
2022-08-22T08:06:50.670Z,5.60
2022-08-22T08:09:20.187Z,5.15
2022-08-22T08:11:51.693Z,6.60
2022-08-22T08:14:21.038Z,6.18
2022-08-22T08:17:01.176Z,5.90
2022-08-22T08:19:30.519Z,5.72
2022-08-22T08:21:58.652Z,5.03
2022-08-22T08:24:46.474Z,5.55
2022-08-22T08:27:39.572Z,6.07
2022-08-22T08:30:23.949Z,5.93
2022-08-22T08:33:24.199Z,5.53
2022-08-22T08:36:03.533Z,5.35
2022-08-22T08:38:39.080Z,5.93
2022-08-22T08:41:51.787Z,6.20
2022-08-22T08:47:11.223Z,5.47
2022-08-22T08:49:44.711Z,5.85
2022-08-22T08:52:32.078Z,6.40
2022-08-22T08:55:22.775Z,6.18
2022-08-22T08:58:12.165Z,5.22
2022-08-22T09:00:42.724Z,6.05
2022-08-22T09:03:35.836Z,5.60
2022-08-22T09:06:30.538Z,4.65
2022-08-22T09:09:06.214Z,5.72
2022-08-22T09:12:01.431Z,5.47
2022-08-22T09:15:12.016Z,5.13
2022-08-22T09:18:09.188Z,5.10
2022-08-22T09:20:59.180Z,5.30
2022-08-22T09:23:47.472Z,5.88
2022-08-22T09:26:48.203Z,5.10
2022-08-22T09:29:54.456Z,4.32
2022-08-22T09:32:33.811Z,3.72
2022-08-22T09:35:27.988Z,3.80
2022-08-22T09:38:39.700Z,3.75
2022-08-22T09:41:24.044Z,3.97
2022-08-22T09:44:22.348Z,3.55
2022-08-22T09:46:56.461Z,4.10
2022-08-22T09:49:49.068Z,3.70
2022-08-22T09:52:51.215Z,2.95
2022-08-22T09:55:52.687Z,3.80
2022-08-22T09:58:52.817Z,4.00
2022-08-22T10:01:46.580Z,3.92
2022-08-22T10:04:34.280Z,3.17
2022-08-22T10:07:35.836Z,3.75
2022-08-22T10:10:16.510Z,3.60
2022-08-22T10:13:10.420Z,2.78
2022-08-22T10:15:55.800Z,2.58
2022-08-22T10:18:44.031Z,3.85
2022-08-22T10:21:37.196Z,3.88
2022-08-22T10:24:25.169Z,3.13
2022-08-22T10:27:06.442Z,3.33
2022-08-22T10:29:43.526Z,3.10
2022-08-22T10:32:21.952Z,3.13
2022-08-22T10:34:59.253Z,2.97
2022-08-22T10:37:37.235Z,2.88
2022-08-22T10:40:39.095Z,3.10
2022-08-22T10:43:34.474Z,3.22
2022-08-22T10:46:12.586Z,2.83
2022-08-22T10:48:54.876Z,3.30
2022-08-22T10:51:51.422Z,2.80
2022-08-22T10:54:28.813Z,2.80
2022-08-22T10:57:03.691Z,2.58
2022-08-22T10:59:44.715Z,2.97
2022-08-22T11:02:38.480Z,3.17
2022-08-22T11:05:20.889Z,2.53
2022-08-22T11:08:07.691Z,3.40
2022-08-22T11:11:02.805Z,3.60
2022-08-22T11:13:45.938Z,3.00
2022-08-22T11:16:21.678Z,2.85
2022-08-22T11:19:16.511Z,2.28
2022-08-22T11:22:08.123Z,2.28
2022-08-22T11:25:00.261Z,2.72
2022-08-22T11:27:37.699Z,2.70
2022-08-22T11:30:18.672Z,2.80
2022-08-22T11:32:49.759Z,2.80
2022-08-22T11:35:24.158Z,3.10
2022-08-22T11:38:36.141Z,2.58
2022-08-22T11:41:14.967Z,2.78
2022-08-22T11:43:56.430Z,2.35
2022-08-22T11:46:36.670Z,3.25
2022-08-22T11:49:25.783Z,2.47
2022-08-22T11:52:12.382Z,2.28
2022-08-22T11:55:12.436Z,2.60
2022-08-22T11:57:49.968Z,2.67
2022-08-22T12:00:32.159Z,3.03
2022-08-22T12:03:37.432Z,2.50
2022-08-22T12:06:27.602Z,2.92
2022-08-22T12:09:09.816Z,2.75
2022-08-22T12:12:11.583Z,2.90
2022-08-22T12:14:44.898Z,2.85
2022-08-22T12:17:55.325Z,3.08
2022-08-22T12:20:31.478Z,2.97
2022-08-22T12:23:17.995Z,2.80
2022-08-22T12:26:14.053Z,2.78
2022-08-22T12:28:41.004Z,2.45
2022-08-22T12:31:25.697Z,2.13
2022-08-22T12:34:03.977Z,2.28
2022-08-22T12:37:02.207Z,2.50
2022-08-22T12:40:12.816Z,2.53
2022-08-22T12:42:48.876Z,2.97
2022-08-22T12:45:34.836Z,2.50
2022-08-22T12:48:26.716Z,2.35
2022-08-22T12:51:17.442Z,2.40
2022-08-22T12:54:09.124Z,2.30
2022-08-22T12:57:15.250Z,2.58
2022-08-22T12:59:55.298Z,2.40
2022-08-22T13:02:29.735Z,2.65
2022-08-22T13:05:20.010Z,2.22
2022-08-22T13:07:56.400Z,2.30
2022-08-22T13:10:44.902Z,2.92
2022-08-22T13:13:31.376Z,2.28
2022-08-22T13:16:13.427Z,2.40
2022-08-22T13:19:07.832Z,2.08
2022-08-22T13:21:39.578Z,2.20
2022-08-22T13:26:50.419Z,2.37
2022-08-22T13:29:26.883Z,2.15
2022-08-22T13:32:02.150Z,2.10
2022-08-22T13:34:45.771Z,2.20
2022-08-22T13:37:24.865Z,2.20
2022-08-22T13:40:00.566Z,1.73
2022-08-22T13:42:31.335Z,2.30
2022-08-22T13:45:05.462Z,2.20
2022-08-22T13:47:39.456Z,2.17
2022-08-22T13:50:14.028Z,2.50
2022-08-22T13:52:59.955Z,1.83
2022-08-22T13:55:34.034Z,2.40
2022-08-22T13:58:14.583Z,2.13
2022-08-22T14:01:05.871Z,1.90
2022-08-22T14:03:48.635Z,2.45
2022-08-22T14:06:37.912Z,2.22
2022-08-22T14:09:31.342Z,2.33
2022-08-22T14:12:08.221Z,2.47
2022-08-22T14:14:42.503Z,2.05
2022-08-22T14:17:19.407Z,2.15
2022-08-22T14:20:01.587Z,1.67
2022-08-22T14:22:35.048Z,2.23
2022-08-22T14:25:16.126Z,1.92
2022-08-22T14:28:03.664Z,1.83
2022-08-22T14:31:01.069Z,2.25
2022-08-22T14:33:40.814Z,2.33
2022-08-22T14:36:22.291Z,2.50
2022-08-22T14:38:58.454Z,2.28
2022-08-22T14:41:52.669Z,2.47
2022-08-22T14:44:28.142Z,1.80
2022-08-22T14:47:00.414Z,2.17
2022-08-22T14:52:19.550Z,2.13
2022-08-22T14:54:47.480Z,2.17
2022-08-22T14:57:20.220Z,2.20
2022-08-22T14:59:52.212Z,2.60
2022-08-22T15:02:31.427Z,2.00
2022-08-22T15:05:12.021Z,2.20
2022-08-22T15:07:39.679Z,2.50
2022-08-22T15:10:33.366Z,2.22
2022-08-22T15:13:08.007Z,2.40
2022-08-22T15:15:41.138Z,2.10
2022-08-22T15:21:08.768Z,2.65
2022-08-22T15:23:45.183Z,2.33
2022-08-22T15:26:36.241Z,2.30
2022-08-22T15:29:24.238Z,2.25
2022-08-22T15:31:57.798Z,2.20
2022-08-22T15:34:42.017Z,2.13
2022-08-22T15:37:18.039Z,2.05
2022-08-22T15:40:11.815Z,2.53
2022-08-22T15:42:48.051Z,2.25
2022-08-22T15:45:31.003Z,2.28
2022-08-22T15:48:04.511Z,2.20
2022-08-22T15:50:34.337Z,2.33
2022-08-22T15:53:20.756Z,2.75
2022-08-22T15:56:05.010Z,2.80
2022-08-22T15:58:39.691Z,2.63
2022-08-22T16:01:22.517Z,2.70
2022-08-22T16:04:12.495Z,2.58
2022-08-22T16:06:44.313Z,2.35
2022-08-22T16:09:29.872Z,2.22
2022-08-22T16:11:58.422Z,2.33
2022-08-22T16:14:46.825Z,2.70
2022-08-22T16:17:28.853Z,2.42
2022-08-22T16:20:15.893Z,2.40
2022-08-22T16:22:59.016Z,1.88
2022-08-22T16:25:44.783Z,2.40
2022-08-22T16:28:36.098Z,2.38
2022-08-22T16:31:27.891Z,2.33
2022-08-22T16:34:20.599Z,2.40
2022-08-22T16:36:51.563Z,2.38
2022-08-22T16:39:21.168Z,2.65
2022-08-22T16:42:12.779Z,2.70
2022-08-22T16:44:42.579Z,2.25
2022-08-22T16:47:19.903Z,2.58
2022-08-22T16:49:49.718Z,2.20
2022-08-22T16:52:25.911Z,2.22
2022-08-22T16:54:58.724Z,2.38
2022-08-22T16:57:32.459Z,2.63
2022-08-22T17:00:07.220Z,2.75
2022-08-22T17:03:03.507Z,2.13
2022-08-22T17:05:43.143Z,2.40
2022-08-22T17:08:35.688Z,2.22
2022-08-22T17:11:11.140Z,2.28
2022-08-22T17:14:06.199Z,2.45
2022-08-22T17:17:09.684Z,2.67
2022-08-22T17:19:52.199Z,1.98
2022-08-22T17:22:36.035Z,2.00
2022-08-22T17:25:34.060Z,2.40
2022-08-22T17:28:22.603Z,1.98
2022-08-22T17:31:04.728Z,2.55
2022-08-22T17:33:40.595Z,2.22
2022-08-22T17:36:32.547Z,2.70
2022-08-22T17:42:22.242Z,2.65
2022-08-22T17:45:17.883Z,3.10
2022-08-22T17:47:55.082Z,3.70
2022-08-22T17:50:40.434Z,3.20
2022-08-22T17:53:34.458Z,3.97
2022-08-22T17:56:22.860Z,3.30
2022-08-22T17:59:03.007Z,2.90
2022-08-22T18:01:47.150Z,2.88
2022-08-22T18:04:34.711Z,2.38
2022-08-22T18:07:41.973Z,3.00
2022-08-22T18:10:21.649Z,2.67
2022-08-22T18:13:27.239Z,2.58
2022-08-22T18:16:01.447Z,2.50
2022-08-22T18:18:33.358Z,2.38
2022-08-22T18:21:15.293Z,2.40
2022-08-22T18:23:49.033Z,2.50
2022-08-22T18:26:27.166Z,2.75
2022-08-22T18:29:09.790Z,2.50
2022-08-22T18:31:48.987Z,3.15
2022-08-22T18:35:02.713Z,2.53
2022-08-22T18:37:33.088Z,2.88
2022-08-22T18:40:26.839Z,2.70
2022-08-22T18:43:05.168Z,2.45
2022-08-22T18:45:46.757Z,2.53
2022-08-22T18:48:26.987Z,3.03
2022-08-22T18:51:24.747Z,3.00
2022-08-22T18:54:00.733Z,3.00
2022-08-22T18:56:45.704Z,2.70
2022-08-22T18:59:23.640Z,3.50
2022-08-22T19:02:28.027Z,3.63
2022-08-22T19:05:17.671Z,3.58
2022-08-22T19:08:07.683Z,3.30
2022-08-22T19:10:46.468Z,4.07
2022-08-22T19:13:22.146Z,4.38
2022-08-22T19:16:05.646Z,4.30
2022-08-22T19:18:52.807Z,3.97
2022-08-22T19:21:53.399Z,3.78
2022-08-22T19:24:20.035Z,4.10
2022-08-22T19:26:51.072Z,3.03
2022-08-22T19:29:17.695Z,3.37
2022-08-22T19:31:50.335Z,3.40
2022-08-22T19:34:19.471Z,3.30
2022-08-22T19:37:06.479Z,3.30
2022-08-22T19:39:42.058Z,3.38
2022-08-22T19:42:30.283Z,5.07
2022-08-22T19:45:02.498Z,4.63
2022-08-22T19:47:58.127Z,5.75
2022-08-22T19:50:31.544Z,4.80
2022-08-22T19:53:24.943Z,4.63
2022-08-22T19:56:01.519Z,3.90
2022-08-22T19:59:08.656Z,5.63
2022-08-22T20:01:45.294Z,4.97
2022-08-22T20:04:32.498Z,4.47
2022-08-22T20:07:24.600Z,3.70
2022-08-22T20:09:57.572Z,3.67
2022-08-22T20:12:49.198Z,3.47
2022-08-22T20:15:22.788Z,3.67
2022-08-22T20:20:54.452Z,4.03
2022-08-22T20:23:30.112Z,4.13
2022-08-22T20:25:58.143Z,4.35
2022-08-22T20:28:40.934Z,3.88
2022-08-22T20:31:20.782Z,4.47
2022-08-22T20:33:55.316Z,4.95
2022-08-22T20:36:28.906Z,4.10
2022-08-22T20:39:08.185Z,4.20
2022-08-22T20:41:42.699Z,4.57
2022-08-22T20:44:31.647Z,4.38
2022-08-22T20:47:13.099Z,4.75
2022-08-22T20:49:55.847Z,4.82
2022-08-22T20:52:32.547Z,4.32
2022-08-22T20:55:05.019Z,4.90
2022-08-22T20:57:33.208Z,5.18
2022-08-22T21:00:11.516Z,6.13
2022-08-22T21:02:58.594Z,5.65
2022-08-22T21:05:33.679Z,5.68
2022-08-22T21:08:13.625Z,5.20
2022-08-22T21:11:00.158Z,5.32
2022-08-22T21:13:33.771Z,5.32
2022-08-22T21:16:16.365Z,5.68
2022-08-22T21:18:46.830Z,5.53
2022-08-22T21:21:27.248Z,5.15
2022-08-22T21:24:01.072Z,5.13
2022-08-22T21:26:37.754Z,5.28
2022-08-22T21:29:13.436Z,5.00
2022-08-22T21:31:53.727Z,5.22
2022-08-22T21:34:36.400Z,5.15
2022-08-22T21:37:14.772Z,5.05
2022-08-22T21:39:50.881Z,5.25
2022-08-22T21:42:37.109Z,5.35
2022-08-22T21:45:10.861Z,5.47
2022-08-22T21:47:40.017Z,5.65
2022-08-22T21:50:18.659Z,6.00
2022-08-22T21:53:04.447Z,6.53
2022-08-22T21:55:36.947Z,6.32
2022-08-22T21:58:06.409Z,5.28
2022-08-22T22:00:49.486Z,5.15
2022-08-22T22:03:20.222Z,5.97
2022-08-22T22:05:49.513Z,6.60
2022-08-22T22:08:17.311Z,6.03
2022-08-22T22:10:45.980Z,5.90
2022-08-22T22:13:13.431Z,6.35
2022-08-22T22:15:44.171Z,6.20
2022-08-22T22:18:17.547Z,6.45
2022-08-22T22:20:45.572Z,6.20
2022-08-22T22:23:12.499Z,6.50
2022-08-22T22:25:42.408Z,7.05
2022-08-22T22:28:22.122Z,6.65
2022-08-22T22:30:52.934Z,7.00
2022-08-22T22:33:21.691Z,6.68
2022-08-22T22:35:49.395Z,6.32
2022-08-22T22:38:19.509Z,7.32
2022-08-22T22:40:50.347Z,6.72
2022-08-22T22:43:19.717Z,6.85
2022-08-22T22:45:46.705Z,7.00
2022-08-22T22:48:15.768Z,6.78
2022-08-22T22:50:54.827Z,6.55
2022-08-22T22:53:37.923Z,6.63
2022-08-22T22:56:07.278Z,7.00
2022-08-22T22:58:37.328Z,6.85
2022-08-22T23:01:36.702Z,6.57
2022-08-22T23:04:05.831Z,6.80
2022-08-22T23:06:33.040Z,6.57
2022-08-22T23:08:59.851Z,7.35
2022-08-22T23:11:29.103Z,7.68
2022-08-22T23:13:58.207Z,7.30
2022-08-22T23:16:27.819Z,7.50
2022-08-22T23:18:55.357Z,7.47
2022-08-22T23:21:27.625Z,7.95
2022-08-22T23:23:57.942Z,7.68
2022-08-22T23:26:24.844Z,7.70
2022-08-22T23:28:51.842Z,6.78
2022-08-22T23:31:26.204Z,7.20
2022-08-22T23:33:53.086Z,7.38
2022-08-22T23:36:22.139Z,6.97
2022-08-22T23:38:50.455Z,7.20
2022-08-22T23:41:20.517Z,7.18
2022-08-22T23:43:51.726Z,6.78
2022-08-22T23:46:20.612Z,7.40
2022-08-22T23:48:47.886Z,7.40
2022-08-22T23:51:17.142Z,7.10
2022-08-22T23:53:52.700Z,7.35
2022-08-22T23:56:25.401Z,7.55
2022-08-22T23:58:53.391Z,7.40
